createdAt,value
2018-07-11T00:00:30.952Z,17.60
2018-07-11T00:03:01.266Z,17.50
2018-07-11T00:05:31.210Z,17.50
2018-07-11T00:08:01.312Z,17.50
2018-07-11T00:12:59.886Z,17.50
2018-07-11T00:15:29.913Z,17.40
2018-07-11T00:18:00.745Z,17.40
2018-07-11T00:20:31.039Z,17.40
2018-07-11T00:23:00.780Z,17.40
2018-07-11T00:25:31.054Z,17.40
2018-07-11T00:28:01.581Z,17.40
2018-07-11T00:30:31.302Z,17.30
2018-07-11T00:33:01.542Z,17.30
2018-07-11T00:35:31.003Z,17.30
2018-07-11T00:38:01.044Z,17.30
2018-07-11T00:40:31.439Z,17.20
2018-07-11T00:43:01.332Z,17.20
2018-07-11T00:45:31.309Z,17.10
2018-07-11T00:48:00.966Z,17.10
2018-07-11T00:50:31.437Z,17.00
2018-07-11T00:53:01.269Z,17.00
2018-07-11T00:55:31.379Z,16.90
2018-07-11T00:58:17.360Z,16.90
2018-07-11T01:00:56.460Z,16.90
2018-07-11T01:03:26.644Z,16.80
2018-07-11T01:05:56.726Z,16.80
2018-07-11T01:10:56.531Z,16.70
2018-07-11T01:13:26.910Z,16.70
2018-07-11T01:15:57.127Z,16.60
2018-07-11T01:18:27.412Z,16.60
2018-07-11T01:20:57.142Z,16.60
2018-07-11T01:25:56.394Z,16.50
2018-07-11T01:28:26.086Z,16.50
2018-07-11T01:30:55.809Z,16.40
2018-07-11T01:33:25.764Z,16.40
2018-07-11T01:35:55.695Z,16.40
2018-07-11T01:38:25.424Z,16.40
2018-07-11T01:40:56.035Z,16.30
2018-07-11T01:43:26.308Z,16.30
2018-07-11T01:45:56.100Z,16.30
2018-07-11T01:48:25.823Z,16.20
2018-07-11T01:50:56.437Z,16.20
2018-07-11T01:53:26.790Z,16.20
2018-07-11T01:55:56.562Z,16.10
2018-07-11T01:58:26.190Z,16.10
2018-07-11T02:00:56.217Z,16.10
2018-07-11T02:03:26.495Z,16.10
2018-07-11T02:05:56.718Z,16.10
2018-07-11T02:08:28.252Z,16.00
2018-07-11T02:10:59.603Z,16.00
2018-07-11T02:13:29.872Z,16.00
2018-07-11T02:15:59.516Z,15.90
2018-07-11T02:18:30.703Z,15.90
2018-07-11T02:21:01.653Z,15.90
2018-07-11T02:23:38.524Z,15.80
2018-07-11T02:26:08.314Z,15.70
2018-07-11T02:28:38.519Z,15.70
2018-07-11T02:31:08.186Z,15.60
2018-07-11T02:33:38.826Z,15.60
2018-07-11T02:36:08.957Z,15.50
2018-07-11T02:38:38.760Z,15.50
2018-07-11T02:43:38.101Z,15.50
2018-07-11T02:46:07.667Z,15.50
2018-07-11T02:48:39.019Z,15.50
2018-07-11T02:51:08.624Z,15.40
2018-07-11T02:53:38.661Z,15.40
2018-07-11T02:56:08.632Z,15.40
2018-07-11T02:58:39.237Z,15.40
2018-07-11T03:01:09.418Z,15.40
2018-07-11T03:03:38.639Z,15.40
2018-07-11T03:06:08.203Z,15.30
2018-07-11T03:08:39.503Z,15.30
2018-07-11T03:11:09.410Z,15.20
2018-07-11T03:13:38.460Z,15.20
2018-07-11T03:16:07.812Z,15.10
2018-07-11T03:18:37.439Z,15.10
2018-07-11T03:21:07.670Z,15.10
2018-07-11T03:23:37.890Z,15.10
2018-07-11T03:26:07.922Z,15.00
2018-07-11T03:28:37.888Z,15.10
2018-07-11T03:31:08.299Z,15.10
2018-07-11T03:33:37.753Z,15.10
2018-07-11T03:36:08.139Z,15.00
2018-07-11T03:41:07.195Z,15.00
2018-07-11T03:43:37.067Z,15.00
2018-07-11T03:46:07.588Z,15.00
2018-07-11T03:48:37.528Z,15.00
2018-07-11T03:53:35.421Z,15.00
2018-07-11T03:56:05.570Z,14.90
2018-07-11T03:58:36.222Z,14.90
2018-07-11T04:01:06.367Z,14.90
2018-07-11T04:03:36.690Z,14.90
2018-07-11T04:06:06.542Z,14.90
2018-07-11T04:08:36.486Z,14.90
2018-07-11T04:11:06.419Z,15.00
2018-07-11T04:13:35.561Z,15.00
2018-07-11T04:18:34.793Z,15.10
2018-07-11T04:21:04.517Z,15.10
2018-07-11T04:23:34.062Z,15.10
2018-07-11T04:26:04.193Z,15.10
2018-07-11T04:28:34.313Z,15.10
2018-07-11T04:31:03.964Z,15.10
2018-07-11T04:33:33.594Z,15.10
2018-07-11T04:36:02.969Z,15.10
2018-07-11T04:38:33.149Z,15.10
2018-07-11T04:41:03.248Z,15.00
2018-07-11T04:43:33.448Z,15.10
2018-07-11T04:46:03.694Z,15.10
2018-07-11T04:48:33.952Z,15.10
2018-07-11T04:51:03.372Z,15.10
2018-07-11T04:53:33.499Z,15.10
2018-07-11T04:56:05.411Z,15.10
2018-07-11T04:58:35.313Z,15.20
2018-07-11T05:01:04.795Z,15.30
2018-07-11T05:03:34.754Z,15.30
2018-07-11T05:06:04.189Z,15.40
2018-07-11T05:08:33.356Z,15.40
2018-07-11T05:11:02.774Z,15.50
2018-07-11T05:13:32.760Z,15.50
2018-07-11T05:16:02.546Z,15.60
2018-07-11T05:18:32.983Z,15.50
2018-07-11T05:21:02.813Z,15.50
2018-07-11T05:23:32.607Z,15.50
2018-07-11T05:26:02.103Z,15.60
2018-07-11T05:28:32.141Z,15.60
2018-07-11T05:31:01.794Z,15.80
2018-07-11T05:33:31.549Z,15.90
2018-07-11T05:36:00.913Z,16.00
2018-07-11T05:38:30.801Z,16.00
2018-07-11T05:41:00.650Z,16.00
2018-07-11T05:43:31.237Z,16.00
2018-07-11T05:46:00.592Z,16.00
2018-07-11T05:48:30.491Z,16.00
2018-07-11T05:53:29.636Z,16.10
2018-07-11T05:55:59.926Z,16.10
2018-07-11T06:00:59.248Z,16.30
2018-07-11T06:03:28.732Z,16.30
2018-07-11T06:05:58.226Z,16.30
2018-07-11T06:08:27.695Z,16.40
2018-07-11T06:10:57.842Z,16.40
2018-07-11T06:13:27.465Z,16.50
2018-07-11T06:15:57.129Z,16.70
2018-07-11T06:20:56.340Z,16.90
2018-07-11T06:23:25.569Z,17.00
2018-07-11T06:25:55.907Z,17.10
2018-07-11T06:28:25.473Z,17.20
2018-07-11T06:30:54.752Z,17.30
2018-07-11T06:33:23.802Z,17.40
2018-07-11T06:35:52.871Z,17.50
2018-07-11T06:40:52.070Z,17.70
2018-07-11T06:43:21.623Z,17.70
2018-07-11T06:45:50.945Z,17.70
2018-07-11T06:48:20.054Z,17.60
2018-07-11T06:50:49.527Z,17.50
2018-07-11T06:53:18.854Z,17.40
2018-07-11T06:55:47.932Z,17.40
2018-07-11T06:58:17.221Z,17.40
2018-07-11T07:00:46.501Z,17.40
2018-07-11T07:05:45.999Z,17.40
2018-07-11T07:08:15.426Z,17.40
2018-07-11T07:10:44.842Z,17.40
2018-07-11T07:13:14.564Z,17.40
2018-07-11T07:15:43.952Z,17.50
2018-07-11T07:20:43.067Z,17.60
2018-07-11T07:23:12.826Z,17.70
2018-07-11T07:25:41.927Z,17.90
2018-07-11T07:28:11.881Z,18.00
2018-07-11T07:33:11.300Z,18.00
2018-07-11T07:35:40.961Z,18.10
2018-07-11T07:38:10.608Z,18.20
2018-07-11T07:40:39.475Z,18.10
2018-07-11T07:43:08.547Z,18.20
2018-07-11T07:45:38.097Z,18.40
2018-07-11T07:48:07.434Z,18.50
2018-07-11T07:50:36.542Z,18.70
2018-07-11T07:53:05.802Z,19.00
2018-07-11T07:55:35.642Z,19.20
2018-07-11T07:58:06.306Z,19.30
2018-07-11T08:00:36.542Z,19.30
2018-07-11T08:03:05.974Z,19.40
2018-07-11T08:05:35.230Z,19.50
2018-07-11T08:08:04.271Z,19.50
2018-07-11T08:10:33.364Z,19.70
2018-07-11T08:13:02.386Z,19.80
2018-07-11T08:17:59.984Z,19.90
2018-07-11T08:20:29.363Z,20.00
2018-07-11T08:25:55.031Z,20.10
2018-07-11T08:30:00.241Z,20.10
2018-07-11T08:32:48.831Z,20.30
2018-07-11T08:36:31.579Z,20.40
2018-07-11T08:40:18.626Z,20.60
2018-07-11T08:42:59.177Z,21.00
2018-07-11T08:45:36.665Z,21.40
2018-07-11T08:48:15.311Z,21.60
2018-07-11T08:51:54.914Z,21.90
2018-07-11T08:56:42.569Z,22.20
2018-07-11T08:59:24.045Z,22.50
2018-07-11T09:04:37.686Z,22.40
2018-07-11T09:09:22.344Z,22.40
2018-07-11T09:12:31.867Z,22.60
2018-07-11T09:15:12.779Z,22.60
2018-07-11T09:18:58.323Z,22.80
2018-07-11T09:23:41.025Z,22.90
2018-07-11T09:26:10.778Z,23.00
2018-07-11T09:28:40.631Z,22.80
2018-07-11T09:31:10.603Z,22.90
2018-07-11T09:33:40.041Z,23.10
2018-07-11T09:36:09.719Z,23.40
2018-07-11T09:38:40.188Z,23.70
2018-07-11T09:41:09.543Z,23.90
2018-07-11T09:43:39.207Z,24.10
2018-07-11T09:46:08.559Z,24.20
2018-07-11T09:48:38.646Z,24.30
2018-07-11T09:51:08.596Z,24.30
2018-07-11T09:53:38.576Z,24.50
2018-07-11T09:56:08.413Z,24.70
2018-07-11T09:58:38.236Z,24.80
2018-07-11T10:01:13.148Z,24.70
2018-07-11T10:03:43.147Z,24.50
2018-07-11T10:06:12.479Z,24.30
2018-07-11T10:08:42.113Z,24.30
2018-07-11T10:11:11.085Z,24.30
2018-07-11T10:13:41.129Z,24.30
2018-07-11T10:16:10.700Z,24.50
2018-07-11T10:18:41.072Z,24.70
2018-07-11T10:21:11.156Z,24.90
2018-07-11T10:23:40.927Z,24.90
2018-07-11T10:26:10.354Z,25.00
2018-07-11T10:28:39.531Z,25.00
2018-07-11T10:31:09.303Z,25.20
2018-07-11T10:33:38.457Z,25.60
2018-07-11T10:36:08.487Z,25.80
2018-07-11T10:38:37.764Z,25.80
2018-07-11T10:41:07.970Z,25.40
2018-07-11T10:43:37.591Z,25.20
2018-07-11T10:46:07.614Z,25.20
2018-07-11T10:48:37.872Z,25.40
2018-07-11T10:51:07.579Z,25.70
2018-07-11T10:53:37.100Z,25.80
2018-07-11T10:56:06.446Z,25.60
2018-07-11T10:58:36.275Z,25.30
2018-07-11T11:01:06.094Z,25.10
2018-07-11T11:03:35.381Z,25.00
2018-07-11T11:06:04.435Z,24.90
2018-07-11T11:08:33.885Z,24.90
2018-07-11T11:11:03.623Z,24.90
2018-07-11T11:13:32.692Z,24.90
2018-07-11T11:16:03.376Z,25.00
2018-07-11T11:18:32.763Z,25.10
2018-07-11T11:21:02.465Z,25.30
2018-07-11T11:23:31.460Z,25.50
2018-07-11T11:26:00.843Z,25.70
2018-07-11T11:28:29.987Z,25.70
2018-07-11T11:30:59.593Z,25.90
2018-07-11T11:33:28.621Z,26.40
2018-07-11T11:35:57.865Z,26.50
2018-07-11T11:38:26.953Z,26.20
2018-07-11T11:40:56.789Z,25.90
2018-07-11T11:43:26.164Z,25.50
2018-07-11T11:45:56.169Z,25.30
2018-07-11T11:48:26.078Z,25.30
2018-07-11T11:50:56.426Z,25.50
2018-07-11T11:53:25.866Z,25.70
2018-07-11T11:55:55.532Z,25.80
2018-07-11T11:58:25.105Z,25.90
2018-07-11T12:03:22.826Z,25.70
2018-07-11T12:05:52.333Z,25.50
2018-07-11T12:08:22.202Z,25.40
2018-07-11T12:10:51.595Z,25.40
2018-07-11T12:15:49.542Z,25.70
2018-07-11T12:18:18.924Z,25.80
2018-07-11T12:20:48.414Z,25.90
2018-07-11T12:23:18.056Z,25.80
2018-07-11T12:26:22.427Z,25.60
2018-07-11T12:28:51.659Z,25.50
2018-07-11T12:31:21.241Z,25.60
2018-07-11T12:33:50.645Z,25.50
2018-07-11T12:36:20.312Z,25.40
2018-07-11T12:38:53.888Z,25.20
2018-07-11T12:41:23.684Z,25.00
2018-07-11T12:43:53.437Z,24.80
2018-07-11T12:46:23.327Z,24.60
2018-07-11T12:48:58.392Z,24.30
2018-07-11T12:51:27.598Z,24.20
2018-07-11T12:53:56.635Z,24.20
2018-07-11T12:56:27.585Z,24.10
2018-07-11T12:58:57.759Z,24.00
2018-07-11T13:01:28.427Z,24.00
2018-07-11T13:03:59.137Z,24.30
2018-07-11T13:06:30.114Z,24.60
2018-07-11T13:08:59.187Z,25.00
2018-07-11T13:11:28.486Z,25.40
2018-07-11T13:13:58.209Z,25.70
2018-07-11T13:16:27.496Z,26.00
2018-07-11T13:18:57.107Z,26.00
2018-07-11T13:21:26.628Z,26.00
2018-07-11T13:28:53.493Z,26.70
2018-07-11T13:31:23.590Z,26.90
2018-07-11T13:33:53.147Z,27.20
2018-07-11T13:36:23.286Z,27.50
2018-07-11T13:38:52.798Z,27.70
2018-07-11T13:41:22.023Z,27.80
2018-07-11T13:43:52.383Z,28.00
2018-07-11T13:46:22.116Z,28.10
2018-07-11T13:48:51.399Z,28.30
2018-07-11T13:53:49.718Z,28.70
2018-07-11T13:56:19.990Z,29.80
2018-07-11T13:58:50.480Z,29.90
2018-07-11T14:01:20.217Z,30.30
2018-07-11T14:03:49.609Z,31.00
2018-07-11T14:06:18.971Z,30.20
2018-07-11T14:11:17.701Z,31.00
2018-07-11T14:13:47.259Z,31.30
2018-07-11T14:16:16.522Z,30.90
2018-07-11T14:18:46.277Z,30.50
2018-07-11T14:21:15.933Z,29.90
2018-07-11T14:23:45.658Z,29.40
2018-07-11T14:26:18.027Z,28.80
2018-07-11T14:28:51.990Z,28.20
2018-07-11T14:31:28.486Z,27.80
2018-07-11T14:34:00.383Z,27.50
2018-07-11T14:36:30.500Z,27.30
2018-07-11T14:39:00.455Z,26.90
2018-07-11T14:41:29.792Z,26.80
2018-07-11T14:43:59.631Z,26.60
2018-07-11T14:46:30.535Z,26.30
2018-07-11T14:49:00.645Z,26.30
2018-07-11T14:53:59.356Z,26.50
2018-07-11T14:56:29.644Z,26.60
2018-07-11T14:58:59.765Z,26.30
2018-07-11T15:01:29.494Z,26.10
2018-07-11T15:06:27.649Z,25.80
2018-07-11T15:08:58.458Z,25.80
2018-07-11T15:11:28.361Z,25.80
2018-07-11T15:13:58.495Z,26.00
2018-07-11T15:16:28.283Z,26.20
2018-07-11T15:18:58.311Z,26.50
2018-07-11T15:21:28.136Z,26.60
2018-07-11T15:23:57.718Z,26.60
2018-07-11T15:26:27.694Z,26.60
2018-07-11T15:28:57.479Z,26.60
2018-07-11T15:31:26.573Z,26.70
2018-07-11T15:33:56.078Z,27.00
2018-07-11T15:36:26.431Z,27.20
2018-07-11T15:38:55.852Z,27.60
2018-07-11T15:41:26.291Z,27.70
2018-07-11T15:46:24.923Z,27.60
2018-07-11T15:48:54.590Z,27.30
2018-07-11T15:51:24.488Z,27.10
2018-07-11T15:53:55.743Z,26.80
2018-07-11T15:56:24.925Z,26.60
2018-07-11T15:59:00.571Z,26.40
2018-07-11T16:01:31.223Z,26.30
2018-07-11T16:04:00.889Z,26.10
2018-07-11T16:06:29.942Z,25.90
2018-07-11T16:09:01.654Z,25.70
2018-07-11T16:11:30.982Z,25.60
2018-07-11T16:14:00.290Z,25.40
2018-07-11T16:16:31.823Z,25.50
2018-07-11T16:19:00.999Z,25.50
2018-07-11T16:21:31.571Z,25.50
2018-07-11T16:24:01.579Z,25.50
2018-07-11T16:26:30.970Z,25.20
2018-07-11T16:29:00.483Z,25.00
2018-07-11T16:31:29.714Z,24.90
2018-07-11T16:33:59.721Z,24.80
2018-07-11T16:36:29.671Z,24.80
2018-07-11T16:38:59.830Z,24.70
2018-07-11T16:41:29.483Z,24.60
2018-07-11T16:43:59.176Z,24.60
2018-07-11T16:46:28.492Z,24.70
2018-07-11T16:48:58.016Z,24.70
2018-07-11T16:51:27.774Z,24.80
2018-07-11T16:53:59.344Z,24.80
2018-07-11T16:56:29.015Z,24.90
2018-07-11T16:59:01.860Z,25.10
2018-07-11T17:02:02.829Z,25.30
2018-07-11T17:04:33.282Z,25.50
2018-07-11T17:07:03.106Z,25.50
2018-07-11T17:09:37.371Z,25.40
2018-07-11T17:12:10.657Z,25.40
2018-07-11T17:14:40.786Z,25.30
2018-07-11T17:17:10.642Z,25.10
2018-07-11T17:20:12.571Z,24.90
2018-07-11T17:22:58.742Z,24.80
2018-07-11T17:25:44.034Z,24.60
2018-07-11T17:28:14.206Z,24.50
2018-07-11T17:30:44.504Z,24.40
2018-07-11T17:33:14.660Z,24.30
2018-07-11T17:35:53.153Z,24.20
2018-07-11T17:38:29.305Z,24.20
2018-07-11T17:40:59.508Z,24.20
2018-07-11T17:43:37.263Z,24.30
2018-07-11T17:46:07.917Z,24.40
2018-07-11T17:49:43.918Z,24.50
2018-07-11T17:52:14.171Z,24.60
2018-07-11T17:55:20.231Z,24.60
2018-07-11T17:57:55.079Z,24.60
2018-07-11T18:00:32.918Z,24.50
2018-07-11T18:03:44.690Z,24.50
2018-07-11T18:06:32.544Z,24.40
2018-07-11T18:09:07.244Z,24.40
2018-07-11T18:12:16.184Z,24.30
2018-07-11T18:17:03.958Z,24.30
2018-07-11T18:19:44.189Z,24.40
2018-07-11T18:22:22.223Z,24.40
2018-07-11T18:28:11.689Z,24.40
2018-07-11T18:32:57.509Z,24.50
2018-07-11T18:35:35.295Z,24.30
2018-07-11T18:40:16.631Z,24.30
2018-07-11T18:42:55.806Z,24.30
2018-07-11T18:45:37.367Z,24.20
2018-07-11T18:48:56.785Z,24.20
2018-07-11T18:51:40.430Z,24.20
2018-07-11T18:54:16.244Z,24.20
2018-07-11T18:57:12.141Z,24.30
2018-07-11T18:59:54.804Z,24.30
2018-07-11T19:03:03.853Z,24.30
2018-07-11T19:06:00.546Z,24.30
2018-07-11T19:08:48.505Z,24.30
2018-07-11T19:11:22.899Z,24.30
2018-07-11T19:13:54.768Z,24.30
2018-07-11T19:16:33.058Z,24.20
2018-07-11T19:19:07.653Z,24.20
2018-07-11T19:21:48.825Z,24.20
2018-07-11T19:24:20.499Z,24.10
2018-07-11T19:26:56.027Z,24.10
2018-07-11T19:30:34.120Z,24.00
2018-07-11T19:34:16.877Z,24.00
2018-07-11T19:37:03.169Z,23.90
2018-07-11T19:40:44.947Z,23.70
2018-07-11T19:45:25.129Z,23.70
2018-07-11T19:50:08.012Z,23.60
2018-07-11T19:52:52.599Z,23.40
2018-07-11T19:55:33.103Z,23.40
2018-07-11T19:58:02.331Z,23.30
2018-07-11T20:00:31.755Z,23.30
2018-07-11T20:03:00.705Z,23.30
2018-07-11T20:05:30.003Z,23.30
2018-07-11T20:07:59.030Z,23.20
2018-07-11T20:10:28.513Z,23.20
2018-07-11T20:12:58.263Z,23.20
2018-07-11T20:15:28.454Z,23.20
2018-07-11T20:17:57.839Z,23.20
2018-07-11T20:20:27.285Z,23.20
2018-07-11T20:22:56.782Z,23.20
2018-07-11T20:25:26.545Z,23.20
2018-07-11T20:27:55.772Z,23.20
2018-07-11T20:30:25.130Z,23.10
2018-07-11T20:32:54.900Z,23.10
2018-07-11T20:35:24.497Z,23.00
2018-07-11T20:37:53.745Z,23.00
2018-07-11T20:42:52.072Z,23.00
2018-07-11T20:45:21.399Z,22.90
2018-07-11T20:47:51.082Z,22.90
2018-07-11T20:50:21.197Z,22.80
2018-07-11T20:52:50.479Z,22.80
2018-07-11T20:57:49.098Z,22.80
2018-07-11T21:00:28.752Z,22.80
2018-07-11T21:05:13.043Z,22.70
2018-07-11T21:07:52.515Z,22.60
2018-07-11T21:10:36.581Z,22.50
2018-07-11T21:19:53.259Z,22.50
2018-07-11T21:22:21.516Z,22.40
2018-07-11T21:24:49.799Z,22.30
2018-07-11T21:27:18.084Z,22.30
2018-07-11T21:29:46.336Z,22.20
2018-07-11T21:32:14.572Z,22.20
2018-07-11T21:34:42.828Z,22.20
2018-07-11T21:37:11.075Z,22.10
2018-07-11T21:42:07.407Z,22.00
2018-07-11T21:44:35.651Z,22.00
2018-07-11T21:47:03.883Z,22.00
2018-07-11T21:49:32.131Z,21.90
2018-07-11T21:52:00.384Z,21.90
2018-07-11T21:54:28.629Z,21.90
2018-07-11T21:56:56.839Z,21.80
2018-07-11T21:59:25.143Z,21.80
2018-07-11T22:01:53.356Z,21.80
2018-07-11T22:04:21.657Z,21.80
2018-07-11T22:06:49.895Z,21.70
2018-07-11T22:09:18.201Z,21.70
2018-07-11T22:11:47.260Z,21.70
2018-07-11T22:14:15.528Z,21.80
2018-07-11T22:16:44.036Z,21.80
2018-07-11T22:19:12.252Z,21.80
2018-07-11T22:21:39.479Z,21.80
2018-07-11T22:24:06.693Z,21.80
2018-07-11T22:26:33.916Z,21.70
2018-07-11T22:29:01.470Z,21.60
2018-07-11T22:31:28.698Z,21.40
2018-07-11T22:33:55.929Z,21.40
2018-07-11T22:36:23.126Z,21.30
2018-07-11T22:38:50.351Z,21.20
2018-07-11T22:41:17.560Z,21.20
2018-07-11T22:43:44.771Z,21.20
2018-07-11T22:46:11.999Z,21.20
2018-07-11T22:48:39.623Z,21.10
2018-07-11T22:51:06.863Z,21.10
2018-07-11T22:53:34.339Z,21.00
2018-07-11T22:58:29.517Z,20.90
2018-07-11T23:00:57.259Z,20.80
2018-07-11T23:03:24.532Z,20.80
2018-07-11T23:05:51.739Z,20.70
2018-07-11T23:08:19.299Z,20.70
2018-07-11T23:10:47.094Z,20.60
2018-07-11T23:13:14.352Z,20.50
2018-07-11T23:15:41.646Z,20.50
2018-07-11T23:18:08.839Z,20.40
2018-07-11T23:23:03.627Z,20.40
2018-07-11T23:25:31.756Z,20.40
2018-07-11T23:27:58.944Z,20.40
2018-07-11T23:30:26.231Z,20.40
2018-07-11T23:32:53.471Z,20.40
2018-07-11T23:35:20.676Z,20.50
2018-07-11T23:37:48.096Z,20.50
2018-07-11T23:42:43.049Z,20.40
2018-07-11T23:45:10.272Z,20.30
2018-07-11T23:47:37.548Z,20.30
2018-07-11T23:50:05.603Z,20.20
2018-07-11T23:52:33.105Z,20.20
2018-07-11T23:55:00.401Z,20.10
2018-07-11T23:57:28.297Z,20.10
2018-07-11T23:59:56.164Z,20.00
